sensor_id;sensor_type;location;lat;lon;timestamp;temperature;humidity
59301;DHT22;45073;52.740;6.784;2022-12-10T00:01:07;-0.20;99.90
59301;DHT22;45073;52.740;6.784;2022-12-10T00:03:33;-0.20;99.90
59301;DHT22;45073;52.740;6.784;2022-12-10T00:06:01;-0.20;99.90
59301;DHT22;45073;52.740;6.784;2022-12-10T00:08:27;-0.30;99.90
59301;DHT22;45073;52.740;6.784;2022-12-10T00:10:52;-0.30;99.90
59301;DHT22;45073;52.740;6.784;2022-12-10T00:13:18;-0.30;99.90
59301;DHT22;45073;52.740;6.784;2022-12-10T00:15:44;-0.30;99.90
59301;DHT22;45073;52.740;6.784;2022-12-10T00:18:09;-0.30;99.90
59301;DHT22;45073;52.740;6.784;2022-12-10T00:20:36;-0.30;99.90
59301;DHT22;45073;52.740;6.784;2022-12-10T00:23:02;-0.30;99.90
59301;DHT22;45073;52.740;6.784;2022-12-10T00:25:28;-0.30;99.90
59301;DHT22;45073;52.740;6.784;2022-12-10T00:27:54;-0.30;99.90
59301;DHT22;45073;52.740;6.784;2022-12-10T00:30:19;-0.30;99.90
59301;DHT22;45073;52.740;6.784;2022-12-10T00:32:45;-0.30;99.90
59301;DHT22;45073;52.740;6.784;2022-12-10T00:35:10;-0.30;99.90
59301;DHT22;45073;52.740;6.784;2022-12-10T00:37:36;-0.30;99.90
59301;DHT22;45073;52.740;6.784;2022-12-10T00:40:02;-0.30;99.90
59301;DHT22;45073;52.740;6.784;2022-12-10T00:42:28;-0.30;99.90
59301;DHT22;45073;52.740;6.784;2022-12-10T00:44:53;-0.20;99.90
59301;DHT22;45073;52.740;6.784;2022-12-10T00:47:19;-0.20;99.90
59301;DHT22;45073;52.740;6.784;2022-12-10T00:49:44;-0.20;99.90
59301;DHT22;45073;52.740;6.784;2022-12-10T00:52:10;-0.20;99.90
59301;DHT22;45073;52.740;6.784;2022-12-10T00:54:36;-0.20;99.90
59301;DHT22;45073;52.740;6.784;2022-12-10T00:57:01;-0.20;99.90
59301;DHT22;45073;52.740;6.784;2022-12-10T00:59:27;-0.20;99.90
59301;DHT22;45073;52.740;6.784;2022-12-10T01:01:52;-0.20;99.90
59301;DHT22;45073;52.740;6.784;2022-12-10T01:04:18;-0.20;99.90
59301;DHT22;45073;52.740;6.784;2022-12-10T01:06:49;-0.20;99.90
59301;DHT22;45073;52.740;6.784;2022-12-10T01:09:18;-0.10;99.90
59301;DHT22;45073;52.740;6.784;2022-12-10T01:11:45;-0.10;99.90
59301;DHT22;45073;52.740;6.784;2022-12-10T01:14:13;-0.10;99.90
59301;DHT22;45073;52.740;6.784;2022-12-10T01:16:39;-0.10;99.90
59301;DHT22;45073;52.740;6.784;2022-12-10T01:19:06;-0.10;99.90
59301;DHT22;45073;52.740;6.784;2022-12-10T01:21:31;0.00;99.90
59301;DHT22;45073;52.740;6.784;2022-12-10T01:23:58;0.00;99.90
59301;DHT22;45073;52.740;6.784;2022-12-10T01:26:27;0.00;99.90
59301;DHT22;45073;52.740;6.784;2022-12-10T01:28:53;0.00;99.90
59301;DHT22;45073;52.740;6.784;2022-12-10T01:31:22;0.00;99.90
59301;DHT22;45073;52.740;6.784;2022-12-10T01:33:48;0.00;99.90
59301;DHT22;45073;52.740;6.784;2022-12-10T01:36:20;0.10;99.90
59301;DHT22;45073;52.740;6.784;2022-12-10T01:38:46;0.10;99.90
59301;DHT22;45073;52.740;6.784;2022-12-10T01:41:23;0.10;99.90
59301;DHT22;45073;52.740;6.784;2022-12-10T01:43:59;0.10;99.90
59301;DHT22;45073;52.740;6.784;2022-12-10T01:46:34;0.10;99.90
59301;DHT22;45073;52.740;6.784;2022-12-10T01:49:02;0.10;99.90
59301;DHT22;45073;52.740;6.784;2022-12-10T01:51:30;0.10;99.90
59301;DHT22;45073;52.740;6.784;2022-12-10T01:53:56;0.10;99.90
59301;DHT22;45073;52.740;6.784;2022-12-10T01:56:23;0.10;99.90
59301;DHT22;45073;52.740;6.784;2022-12-10T01:58:51;0.10;99.90
59301;DHT22;45073;52.740;6.784;2022-12-10T02:01:34;0.10;99.90
59301;DHT22;45073;52.740;6.784;2022-12-10T02:07:21;0.10;99.90
59301;DHT22;45073;52.740;6.784;2022-12-10T02:12:57;0.20;99.90
59301;DHT22;45073;52.740;6.784;2022-12-10T02:15:38;0.10;99.90
59301;DHT22;45073;52.740;6.784;2022-12-10T02:18:20;0.20;99.90
59301;DHT22;45073;52.740;6.784;2022-12-10T02:20:53;0.20;99.90
59301;DHT22;45073;52.740;6.784;2022-12-10T02:23:30;0.20;99.90
59301;DHT22;45073;52.740;6.784;2022-12-10T02:26:02;0.20;99.90
59301;DHT22;45073;52.740;6.784;2022-12-10T02:31:25;0.20;99.90
59301;DHT22;45073;52.740;6.784;2022-12-10T02:33:56;0.10;99.90
59301;DHT22;45073;52.740;6.784;2022-12-10T02:36:24;0.10;99.90
59301;DHT22;45073;52.740;6.784;2022-12-10T02:38:51;0.20;99.90
59301;DHT22;45073;52.740;6.784;2022-12-10T02:41:26;0.10;99.90
59301;DHT22;45073;52.740;6.784;2022-12-10T02:43:54;0.10;99.90
59301;DHT22;45073;52.740;6.784;2022-12-10T02:46:23;0.10;99.90
59301;DHT22;45073;52.740;6.784;2022-12-10T02:48:50;0.10;99.90
59301;DHT22;45073;52.740;6.784;2022-12-10T02:51:16;0.10;99.90
59301;DHT22;45073;52.740;6.784;2022-12-10T02:53:43;0.10;99.90
59301;DHT22;45073;52.740;6.784;2022-12-10T02:56:29;0.10;99.90
59301;DHT22;45073;52.740;6.784;2022-12-10T03:02:02;0.00;99.90
59301;DHT22;45073;52.740;6.784;2022-12-10T03:10:25;0.00;99.90
59301;DHT22;45073;52.740;6.784;2022-12-10T03:13:02;0.00;99.90
59301;DHT22;45073;52.740;6.784;2022-12-10T03:15:31;-0.10;99.90
59301;DHT22;45073;52.740;6.784;2022-12-10T03:18:02;-0.10;99.90
59301;DHT22;45073;52.740;6.784;2022-12-10T03:20:31;-0.10;99.90
59301;DHT22;45073;52.740;6.784;2022-12-10T03:22:57;-0.10;99.90
59301;DHT22;45073;52.740;6.784;2022-12-10T03:25:25;-0.10;99.90
59301;DHT22;45073;52.740;6.784;2022-12-10T03:27:54;-0.10;99.90
59301;DHT22;45073;52.740;6.784;2022-12-10T03:30:21;-0.10;99.90
59301;DHT22;45073;52.740;6.784;2022-12-10T03:32:47;-0.10;99.90
59301;DHT22;45073;52.740;6.784;2022-12-10T03:35:14;-0.20;99.90
59301;DHT22;45073;52.740;6.784;2022-12-10T03:37:41;-0.20;99.90
59301;DHT22;45073;52.740;6.784;2022-12-10T03:40:07;-0.20;99.90
59301;DHT22;45073;52.740;6.784;2022-12-10T03:42:36;-0.20;99.90
59301;DHT22;45073;52.740;6.784;2022-12-10T03:45:02;-0.20;99.90
59301;DHT22;45073;52.740;6.784;2022-12-10T03:47:28;-0.20;99.90
59301;DHT22;45073;52.740;6.784;2022-12-10T03:49:53;-0.20;99.90
59301;DHT22;45073;52.740;6.784;2022-12-10T03:52:19;-0.20;99.90
59301;DHT22;45073;52.740;6.784;2022-12-10T03:54:44;-0.20;99.90
59301;DHT22;45073;52.740;6.784;2022-12-10T03:57:10;-0.20;99.90
59301;DHT22;45073;52.740;6.784;2022-12-10T03:59:35;-0.20;99.90
59301;DHT22;45073;52.740;6.784;2022-12-10T04:02:01;-0.20;99.90
59301;DHT22;45073;52.740;6.784;2022-12-10T04:04:27;-0.20;99.90
59301;DHT22;45073;52.740;6.784;2022-12-10T04:06:52;-0.30;99.90
59301;DHT22;45073;52.740;6.784;2022-12-10T04:09:18;-0.30;99.90
59301;DHT22;45073;52.740;6.784;2022-12-10T04:11:44;-0.30;99.90
59301;DHT22;45073;52.740;6.784;2022-12-10T04:14:11;-0.30;99.90
59301;DHT22;45073;52.740;6.784;2022-12-10T04:16:55;-0.30;99.90
59301;DHT22;45073;52.740;6.784;2022-12-10T04:19:21;-0.30;99.90
59301;DHT22;45073;52.740;6.784;2022-12-10T04:21:47;-0.30;99.90
59301;DHT22;45073;52.740;6.784;2022-12-10T04:24:34;-0.40;99.90
59301;DHT22;45073;52.740;6.784;2022-12-10T04:27:33;-0.40;99.90
59301;DHT22;45073;52.740;6.784;2022-12-10T04:30:00;-0.40;99.90
59301;DHT22;45073;52.740;6.784;2022-12-10T04:32:28;-0.50;99.90
59301;DHT22;45073;52.740;6.784;2022-12-10T04:34:54;-0.50;99.90
59301;DHT22;45073;52.740;6.784;2022-12-10T04:37:20;-0.50;99.90
59301;DHT22;45073;52.740;6.784;2022-12-10T04:39:46;-0.50;99.90
59301;DHT22;45073;52.740;6.784;2022-12-10T04:42:13;-0.50;99.90
59301;DHT22;45073;52.740;6.784;2022-12-10T04:44:38;-0.50;99.90
59301;DHT22;45073;52.740;6.784;2022-12-10T04:47:06;-0.60;99.90
59301;DHT22;45073;52.740;6.784;2022-12-10T04:49:33;-0.50;99.90
59301;DHT22;45073;52.740;6.784;2022-12-10T04:51:59;-0.50;99.90
59301;DHT22;45073;52.740;6.784;2022-12-10T04:54:25;-0.50;99.90
59301;DHT22;45073;52.740;6.784;2022-12-10T04:56:50;-0.50;99.90
59301;DHT22;45073;52.740;6.784;2022-12-10T04:59:16;-0.60;99.90
59301;DHT22;45073;52.740;6.784;2022-12-10T05:01:42;-0.60;99.90
59301;DHT22;45073;52.740;6.784;2022-12-10T05:04:10;-0.60;99.90
59301;DHT22;45073;52.740;6.784;2022-12-10T05:06:36;-0.60;99.90
59301;DHT22;45073;52.740;6.784;2022-12-10T05:09:03;-0.60;99.90
59301;DHT22;45073;52.740;6.784;2022-12-10T05:11:30;-0.60;99.90
59301;DHT22;45073;52.740;6.784;2022-12-10T05:13:56;-0.60;99.90
59301;DHT22;45073;52.740;6.784;2022-12-10T05:16:24;-0.60;99.90
59301;DHT22;45073;52.740;6.784;2022-12-10T05:18:50;-0.60;99.90
59301;DHT22;45073;52.740;6.784;2022-12-10T05:21:18;-0.60;99.90
59301;DHT22;45073;52.740;6.784;2022-12-10T05:23:47;-0.60;99.90
59301;DHT22;45073;52.740;6.784;2022-12-10T05:26:17;-0.70;99.90
59301;DHT22;45073;52.740;6.784;2022-12-10T05:28:45;-0.70;99.90
59301;DHT22;45073;52.740;6.784;2022-12-10T05:31:19;-0.70;99.90
59301;DHT22;45073;52.740;6.784;2022-12-10T05:33:46;-0.70;99.90
59301;DHT22;45073;52.740;6.784;2022-12-10T05:36:13;-0.70;99.90
59301;DHT22;45073;52.740;6.784;2022-12-10T05:38:40;-0.70;99.90
59301;DHT22;45073;52.740;6.784;2022-12-10T05:41:08;-0.70;99.90
59301;DHT22;45073;52.740;6.784;2022-12-10T05:43:34;-0.70;99.90
59301;DHT22;45073;52.740;6.784;2022-12-10T05:46:02;-0.70;99.90
59301;DHT22;45073;52.740;6.784;2022-12-10T05:48:28;-0.70;99.90
59301;DHT22;45073;52.740;6.784;2022-12-10T05:50:54;-0.70;99.90
59301;DHT22;45073;52.740;6.784;2022-12-10T05:53:20;-0.80;99.90
59301;DHT22;45073;52.740;6.784;2022-12-10T05:55:45;-0.80;99.90
59301;DHT22;45073;52.740;6.784;2022-12-10T05:58:11;-0.70;99.90
59301;DHT22;45073;52.740;6.784;2022-12-10T06:00:39;-0.80;99.90
59301;DHT22;45073;52.740;6.784;2022-12-10T06:03:04;-0.70;99.90
59301;DHT22;45073;52.740;6.784;2022-12-10T06:05:38;-0.80;99.90
59301;DHT22;45073;52.740;6.784;2022-12-10T06:08:04;-0.80;99.90
59301;DHT22;45073;52.740;6.784;2022-12-10T06:10:30;-0.80;99.90
59301;DHT22;45073;52.740;6.784;2022-12-10T06:12:56;-0.80;99.90
59301;DHT22;45073;52.740;6.784;2022-12-10T06:15:21;-0.80;99.90
59301;DHT22;45073;52.740;6.784;2022-12-10T06:17:47;-0.80;99.90
59301;DHT22;45073;52.740;6.784;2022-12-10T06:20:12;-0.80;99.90
59301;DHT22;45073;52.740;6.784;2022-12-10T06:22:38;-0.80;99.90
59301;DHT22;45073;52.740;6.784;2022-12-10T06:25:04;-0.80;99.90
59301;DHT22;45073;52.740;6.784;2022-12-10T06:27:31;-0.80;99.90
59301;DHT22;45073;52.740;6.784;2022-12-10T06:29:57;-0.90;99.90
59301;DHT22;45073;52.740;6.784;2022-12-10T06:32:22;-0.90;99.90
59301;DHT22;45073;52.740;6.784;2022-12-10T06:34:48;-0.90;99.90
59301;DHT22;45073;52.740;6.784;2022-12-10T06:37:13;-0.90;99.90
59301;DHT22;45073;52.740;6.784;2022-12-10T06:39:39;-0.90;99.90
59301;DHT22;45073;52.740;6.784;2022-12-10T06:42:05;-0.90;99.90
59301;DHT22;45073;52.740;6.784;2022-12-10T06:44:31;-0.90;99.90
59301;DHT22;45073;52.740;6.784;2022-12-10T06:46:57;-1.00;99.90
59301;DHT22;45073;52.740;6.784;2022-12-10T06:49:22;-0.90;99.90
59301;DHT22;45073;52.740;6.784;2022-12-10T06:51:48;-0.90;99.90
59301;DHT22;45073;52.740;6.784;2022-12-10T06:54:14;-1.00;99.90
59301;DHT22;45073;52.740;6.784;2022-12-10T06:56:39;-1.00;99.90
59301;DHT22;45073;52.740;6.784;2022-12-10T06:59:05;-1.00;99.90
59301;DHT22;45073;52.740;6.784;2022-12-10T07:01:34;-1.00;99.90
59301;DHT22;45073;52.740;6.784;2022-12-10T07:03:59;-1.00;99.90
59301;DHT22;45073;52.740;6.784;2022-12-10T07:06:26;-0.90;99.90
59301;DHT22;45073;52.740;6.784;2022-12-10T07:08:53;-0.90;99.90
59301;DHT22;45073;52.740;6.784;2022-12-10T07:11:21;-1.00;99.90
59301;DHT22;45073;52.740;6.784;2022-12-10T07:13:47;-0.90;99.90
59301;DHT22;45073;52.740;6.784;2022-12-10T07:16:14;-0.90;99.90
59301;DHT22;45073;52.740;6.784;2022-12-10T07:18:40;-0.90;99.90
59301;DHT22;45073;52.740;6.784;2022-12-10T07:21:21;-0.90;99.90
59301;DHT22;45073;52.740;6.784;2022-12-10T07:23:47;-0.90;99.90
59301;DHT22;45073;52.740;6.784;2022-12-10T07:26:13;-0.90;99.90
59301;DHT22;45073;52.740;6.784;2022-12-10T07:28:39;-1.00;99.90
59301;DHT22;45073;52.740;6.784;2022-12-10T07:31:07;-1.00;99.90
59301;DHT22;45073;52.740;6.784;2022-12-10T07:33:33;-0.90;99.90
59301;DHT22;45073;52.740;6.784;2022-12-10T07:36:02;-0.90;99.90
59301;DHT22;45073;52.740;6.784;2022-12-10T07:38:27;-0.90;99.90
59301;DHT22;45073;52.740;6.784;2022-12-10T07:40:53;-0.90;99.90
59301;DHT22;45073;52.740;6.784;2022-12-10T07:43:19;-0.90;99.90
59301;DHT22;45073;52.740;6.784;2022-12-10T07:45:44;-0.90;99.90
59301;DHT22;45073;52.740;6.784;2022-12-10T07:48:10;-0.90;99.90
59301;DHT22;45073;52.740;6.784;2022-12-10T07:50:36;-0.80;99.90
59301;DHT22;45073;52.740;6.784;2022-12-10T07:53:02;-0.80;99.90
59301;DHT22;45073;52.740;6.784;2022-12-10T07:55:27;-0.80;99.90
59301;DHT22;45073;52.740;6.784;2022-12-10T07:57:53;-0.80;99.90
59301;DHT22;45073;52.740;6.784;2022-12-10T08:00:18;-0.80;99.90
59301;DHT22;45073;52.740;6.784;2022-12-10T08:02:44;-0.80;99.90
59301;DHT22;45073;52.740;6.784;2022-12-10T08:05:09;-0.70;99.90
59301;DHT22;45073;52.740;6.784;2022-12-10T08:07:36;-0.70;99.90
59301;DHT22;45073;52.740;6.784;2022-12-10T08:10:01;-0.70;99.90
59301;DHT22;45073;52.740;6.784;2022-12-10T08:12:27;-0.70;99.90
59301;DHT22;45073;52.740;6.784;2022-12-10T08:14:53;-0.60;99.90
59301;DHT22;45073;52.740;6.784;2022-12-10T08:17:18;-0.60;99.90
59301;DHT22;45073;52.740;6.784;2022-12-10T08:19:44;-0.60;99.90
59301;DHT22;45073;52.740;6.784;2022-12-10T08:22:09;-0.60;99.90
59301;DHT22;45073;52.740;6.784;2022-12-10T08:24:35;-0.60;99.90
59301;DHT22;45073;52.740;6.784;2022-12-10T08:27:01;-0.60;99.90
59301;DHT22;45073;52.740;6.784;2022-12-10T08:29:26;-0.50;99.90
59301;DHT22;45073;52.740;6.784;2022-12-10T08:31:52;-0.50;99.90
59301;DHT22;45073;52.740;6.784;2022-12-10T08:34:18;-0.50;99.90
59301;DHT22;45073;52.740;6.784;2022-12-10T08:36:45;-0.50;99.90
59301;DHT22;45073;52.740;6.784;2022-12-10T08:39:11;-0.50;99.90
59301;DHT22;45073;52.740;6.784;2022-12-10T08:41:41;-0.50;99.90
59301;DHT22;45073;52.740;6.784;2022-12-10T08:44:06;-0.50;99.90
59301;DHT22;45073;52.740;6.784;2022-12-10T08:46:32;-0.50;99.90
59301;DHT22;45073;52.740;6.784;2022-12-10T08:48:58;-0.40;99.90
59301;DHT22;45073;52.740;6.784;2022-12-10T08:51:24;-0.40;99.90
59301;DHT22;45073;52.740;6.784;2022-12-10T08:53:50;-0.40;99.90
59301;DHT22;45073;52.740;6.784;2022-12-10T08:56:16;-0.40;99.90
59301;DHT22;45073;52.740;6.784;2022-12-10T08:58:42;-0.30;99.90
59301;DHT22;45073;52.740;6.784;2022-12-10T09:01:09;-0.30;99.90
59301;DHT22;45073;52.740;6.784;2022-12-10T09:03:36;-0.30;99.90
59301;DHT22;45073;52.740;6.784;2022-12-10T09:06:15;-0.20;99.90
59301;DHT22;45073;52.740;6.784;2022-12-10T09:08:41;-0.20;99.90
59301;DHT22;45073;52.740;6.784;2022-12-10T09:11:12;-0.20;99.90
59301;DHT22;45073;52.740;6.784;2022-12-10T09:13:38;-0.20;99.90
59301;DHT22;45073;52.740;6.784;2022-12-10T09:16:04;-0.10;99.90
59301;DHT22;45073;52.740;6.784;2022-12-10T09:18:30;-0.10;99.90
59301;DHT22;45073;52.740;6.784;2022-12-10T09:20:56;0.00;99.90
59301;DHT22;45073;52.740;6.784;2022-12-10T09:23:22;0.00;99.90
59301;DHT22;45073;52.740;6.784;2022-12-10T09:25:48;0.10;99.90
59301;DHT22;45073;52.740;6.784;2022-12-10T09:28:13;0.10;99.90
59301;DHT22;45073;52.740;6.784;2022-12-10T09:30:39;0.20;99.90
59301;DHT22;45073;52.740;6.784;2022-12-10T09:33:04;0.20;99.90
59301;DHT22;45073;52.740;6.784;2022-12-10T09:35:30;0.30;99.90
59301;DHT22;45073;52.740;6.784;2022-12-10T09:37:56;0.30;99.90
59301;DHT22;45073;52.740;6.784;2022-12-10T09:40:32;0.30;99.90
59301;DHT22;45073;52.740;6.784;2022-12-10T09:43:16;0.40;99.90
59301;DHT22;45073;52.740;6.784;2022-12-10T09:46:40;0.40;99.90
59301;DHT22;45073;52.740;6.784;2022-12-10T09:48:50;0.50;99.90
59301;DHT22;45073;52.740;6.784;2022-12-10T09:51:25;0.50;99.90
59301;DHT22;45073;52.740;6.784;2022-12-10T09:53:53;0.60;99.90
59301;DHT22;45073;52.740;6.784;2022-12-10T09:56:33;0.60;99.90
59301;DHT22;45073;52.740;6.784;2022-12-10T09:59:03;0.70;99.90
59301;DHT22;45073;52.740;6.784;2022-12-10T10:01:33;0.70;99.90
59301;DHT22;45073;52.740;6.784;2022-12-10T10:03:59;0.80;99.90
59301;DHT22;45073;52.740;6.784;2022-12-10T10:06:26;0.80;99.90
59301;DHT22;45073;52.740;6.784;2022-12-10T10:08:55;0.80;99.90
59301;DHT22;45073;52.740;6.784;2022-12-10T10:11:29;0.80;99.90
59301;DHT22;45073;52.740;6.784;2022-12-10T10:13:58;0.80;99.90
59301;DHT22;45073;52.740;6.784;2022-12-10T10:16:32;0.80;99.90
59301;DHT22;45073;52.740;6.784;2022-12-10T10:19:09;0.80;99.90
59301;DHT22;45073;52.740;6.784;2022-12-10T10:21:40;0.80;99.90
59301;DHT22;45073;52.740;6.784;2022-12-10T10:24:09;0.80;99.90
59301;DHT22;45073;52.740;6.784;2022-12-10T10:26:37;0.80;99.90
59301;DHT22;45073;52.740;6.784;2022-12-10T10:29:09;0.80;99.90
59301;DHT22;45073;52.740;6.784;2022-12-10T10:31:39;0.70;99.90
59301;DHT22;45073;52.740;6.784;2022-12-10T10:34:21;0.60;99.90
59301;DHT22;45073;52.740;6.784;2022-12-10T10:36:47;0.50;99.90
59301;DHT22;45073;52.740;6.784;2022-12-10T10:39:29;0.40;99.90
59301;DHT22;45073;52.740;6.784;2022-12-10T10:41:57;0.40;99.90
59301;DHT22;45073;52.740;6.784;2022-12-10T10:44:32;0.40;99.90
59301;DHT22;45073;52.740;6.784;2022-12-10T10:46:59;0.30;99.90
59301;DHT22;45073;52.740;6.784;2022-12-10T10:52:15;0.30;99.90
59301;DHT22;45073;52.740;6.784;2022-12-10T10:54:43;0.30;99.90
59301;DHT22;45073;52.740;6.784;2022-12-10T10:59:43;0.30;99.90
59301;DHT22;45073;52.740;6.784;2022-12-10T11:02:23;0.30;99.90
59301;DHT22;45073;52.740;6.784;2022-12-10T11:04:52;0.30;99.90
59301;DHT22;45073;52.740;6.784;2022-12-10T11:09:58;0.30;99.90
59301;DHT22;45073;52.740;6.784;2022-12-10T11:12:31;0.20;99.90
59301;DHT22;45073;52.740;6.784;2022-12-10T11:14:58;0.20;99.90
59301;DHT22;45073;52.740;6.784;2022-12-10T11:17:25;0.20;99.90
59301;DHT22;45073;52.740;6.784;2022-12-10T11:20:00;0.20;99.90
59301;DHT22;45073;52.740;6.784;2022-12-10T11:22:32;0.20;99.90
59301;DHT22;45073;52.740;6.784;2022-12-10T11:24:59;0.20;99.90
59301;DHT22;45073;52.740;6.784;2022-12-10T11:30:18;0.20;99.90
59301;DHT22;45073;52.740;6.784;2022-12-10T11:38:48;0.10;99.90
59301;DHT22;45073;52.740;6.784;2022-12-10T11:49:25;0.10;99.90
59301;DHT22;45073;52.740;6.784;2022-12-10T12:00:26;0.00;99.90
59301;DHT22;45073;52.740;6.784;2022-12-10T12:03:11;0.00;99.90
59301;DHT22;45073;52.740;6.784;2022-12-10T12:11:54;0.00;99.90
59301;DHT22;45073;52.740;6.784;2022-12-10T12:14:27;0.00;99.90
59301;DHT22;45073;52.740;6.784;2022-12-10T12:17:02;0.00;99.90
59301;DHT22;45073;52.740;6.784;2022-12-10T12:19:53;0.00;99.90
59301;DHT22;45073;52.740;6.784;2022-12-10T12:22:29;0.10;99.90
59301;DHT22;45073;52.740;6.784;2022-12-10T12:25:05;0.10;99.90
59301;DHT22;45073;52.740;6.784;2022-12-10T12:27:39;0.10;99.90
59301;DHT22;45073;52.740;6.784;2022-12-10T12:30:14;0.10;99.90
59301;DHT22;45073;52.740;6.784;2022-12-10T12:33:05;0.10;99.90
59301;DHT22;45073;52.740;6.784;2022-12-10T12:35:52;0.20;99.90
59301;DHT22;45073;52.740;6.784;2022-12-10T12:38:31;0.20;99.90
59301;DHT22;45073;52.740;6.784;2022-12-10T12:41:10;0.20;99.90
59301;DHT22;45073;52.740;6.784;2022-12-10T12:43:51;0.20;99.90
59301;DHT22;45073;52.740;6.784;2022-12-10T12:46:32;0.20;99.90
59301;DHT22;45073;52.740;6.784;2022-12-10T12:49:27;0.20;99.90
59301;DHT22;45073;52.740;6.784;2022-12-10T12:54:42;0.30;99.90
59301;DHT22;45073;52.740;6.784;2022-12-10T12:57:40;0.30;99.90
59301;DHT22;45073;52.740;6.784;2022-12-10T13:00:15;0.30;99.90
59301;DHT22;45073;52.740;6.784;2022-12-10T13:03:05;0.30;99.90
59301;DHT22;45073;52.740;6.784;2022-12-10T13:05:37;0.20;99.90
59301;DHT22;45073;52.740;6.784;2022-12-10T13:13:39;0.30;99.90
59301;DHT22;45073;52.740;6.784;2022-12-10T13:19:25;0.30;99.90
59301;DHT22;45073;52.740;6.784;2022-12-10T13:40:13;0.40;99.90
59301;DHT22;45073;52.740;6.784;2022-12-10T13:42:43;0.40;99.90
59301;DHT22;45073;52.740;6.784;2022-12-10T13:45:31;0.50;99.90
59301;DHT22;45073;52.740;6.784;2022-12-10T13:48:28;0.50;99.90
59301;DHT22;45073;52.740;6.784;2022-12-10T13:53:47;0.40;99.90
59301;DHT22;45073;52.740;6.784;2022-12-10T13:56:28;0.40;99.90
59301;DHT22;45073;52.740;6.784;2022-12-10T14:05:04;0.30;99.90
59301;DHT22;45073;52.740;6.784;2022-12-10T14:07:33;0.30;99.90
59301;DHT22;45073;52.740;6.784;2022-12-10T14:10:00;0.30;99.90
59301;DHT22;45073;52.740;6.784;2022-12-10T14:12:33;0.30;99.90
59301;DHT22;45073;52.740;6.784;2022-12-10T14:15:04;0.30;99.90
59301;DHT22;45073;52.740;6.784;2022-12-10T14:17:37;0.30;99.90
59301;DHT22;45073;52.740;6.784;2022-12-10T14:20:06;0.30;99.90
59301;DHT22;45073;52.740;6.784;2022-12-10T14:22:45;0.20;99.90
59301;DHT22;45073;52.740;6.784;2022-12-10T14:25:15;0.20;99.90
59301;DHT22;45073;52.740;6.784;2022-12-10T14:27:41;0.20;99.90
59301;DHT22;45073;52.740;6.784;2022-12-10T14:32:42;0.30;99.90
59301;DHT22;45073;52.740;6.784;2022-12-10T14:35:24;0.30;99.90
59301;DHT22;45073;52.740;6.784;2022-12-10T14:37:51;0.20;99.90
59301;DHT22;45073;52.740;6.784;2022-12-10T14:40:23;0.20;99.90
59301;DHT22;45073;52.740;6.784;2022-12-10T14:42:54;0.20;99.90
59301;DHT22;45073;52.740;6.784;2022-12-10T14:45:22;0.20;99.90
59301;DHT22;45073;52.740;6.784;2022-12-10T14:47:48;0.10;99.90
59301;DHT22;45073;52.740;6.784;2022-12-10T14:50:15;0.10;99.90
59301;DHT22;45073;52.740;6.784;2022-12-10T14:52:50;0.10;99.90
59301;DHT22;45073;52.740;6.784;2022-12-10T14:55:19;0.10;99.90
59301;DHT22;45073;52.740;6.784;2022-12-10T14:58:01;0.00;99.90
59301;DHT22;45073;52.740;6.784;2022-12-10T15:00:28;0.00;99.90
59301;DHT22;45073;52.740;6.784;2022-12-10T15:02:57;0.00;99.90
59301;DHT22;45073;52.740;6.784;2022-12-10T15:05:26;0.10;99.90
59301;DHT22;45073;52.740;6.784;2022-12-10T15:07:55;0.10;99.90
59301;DHT22;45073;52.740;6.784;2022-12-10T15:10:28;0.10;99.90
59301;DHT22;45073;52.740;6.784;2022-12-10T15:12:55;0.10;99.90
59301;DHT22;45073;52.740;6.784;2022-12-10T15:15:37;0.10;99.90
59301;DHT22;45073;52.740;6.784;2022-12-10T15:21:23;0.10;99.90
59301;DHT22;45073;52.740;6.784;2022-12-10T15:25:57;0.20;99.90
59301;DHT22;45073;52.740;6.784;2022-12-10T15:28:29;0.20;99.90
59301;DHT22;45073;52.740;6.784;2022-12-10T15:30:57;0.20;99.90
59301;DHT22;45073;52.740;6.784;2022-12-10T15:33:37;0.20;99.90
59301;DHT22;45073;52.740;6.784;2022-12-10T15:36:04;0.20;99.90
59301;DHT22;45073;52.740;6.784;2022-12-10T15:38:31;0.20;99.90
59301;DHT22;45073;52.740;6.784;2022-12-10T15:41:21;0.20;99.90
59301;DHT22;45073;52.740;6.784;2022-12-10T15:44:03;0.10;99.90
59301;DHT22;45073;52.740;6.784;2022-12-10T15:46:29;0.10;99.90
59301;DHT22;45073;52.740;6.784;2022-12-10T15:48:54;0.10;99.90
59301;DHT22;45073;52.740;6.784;2022-12-10T15:51:20;0.10;99.90
59301;DHT22;45073;52.740;6.784;2022-12-10T15:53:46;0.10;99.90
59301;DHT22;45073;52.740;6.784;2022-12-10T15:56:11;0.10;99.90
59301;DHT22;45073;52.740;6.784;2022-12-10T15:58:37;0.10;99.90
59301;DHT22;45073;52.740;6.784;2022-12-10T16:01:03;0.10;99.90
59301;DHT22;45073;52.740;6.784;2022-12-10T16:03:29;0.10;99.90
59301;DHT22;45073;52.740;6.784;2022-12-10T16:05:54;0.10;99.90
59301;DHT22;45073;52.740;6.784;2022-12-10T16:08:28;0.10;99.90
59301;DHT22;45073;52.740;6.784;2022-12-10T16:10:56;0.10;99.90
59301;DHT22;45073;52.740;6.784;2022-12-10T16:13:29;0.10;99.90
59301;DHT22;45073;52.740;6.784;2022-12-10T16:16:01;0.00;99.90
59301;DHT22;45073;52.740;6.784;2022-12-10T16:18:28;0.00;99.90
59301;DHT22;45073;52.740;6.784;2022-12-10T16:20:54;0.00;99.90
59301;DHT22;45073;52.740;6.784;2022-12-10T16:23:20;0.00;99.90
59301;DHT22;45073;52.740;6.784;2022-12-10T16:25:45;0.10;99.90
59301;DHT22;45073;52.740;6.784;2022-12-10T16:28:14;0.00;99.90
59301;DHT22;45073;52.740;6.784;2022-12-10T16:33:10;0.10;99.90
59301;DHT22;45073;52.740;6.784;2022-12-10T16:35:36;0.10;99.90
59301;DHT22;45073;52.740;6.784;2022-12-10T16:38:02;0.10;99.90
59301;DHT22;45073;52.740;6.784;2022-12-10T16:40:28;0.00;99.90
59301;DHT22;45073;52.740;6.784;2022-12-10T16:42:54;0.10;99.90
59301;DHT22;45073;52.740;6.784;2022-12-10T16:45:22;0.10;99.90
59301;DHT22;45073;52.740;6.784;2022-12-10T16:47:49;0.10;99.90
59301;DHT22;45073;52.740;6.784;2022-12-10T16:50:16;0.10;99.90
59301;DHT22;45073;52.740;6.784;2022-12-10T16:52:42;0.10;99.90
59301;DHT22;45073;52.740;6.784;2022-12-10T16:55:14;0.10;99.90
59301;DHT22;45073;52.740;6.784;2022-12-10T16:57:40;0.20;99.90
59301;DHT22;45073;52.740;6.784;2022-12-10T17:00:07;0.20;99.90
59301;DHT22;45073;52.740;6.784;2022-12-10T17:02:32;0.20;99.90
59301;DHT22;45073;52.740;6.784;2022-12-10T17:04:58;0.10;99.90
59301;DHT22;45073;52.740;6.784;2022-12-10T17:07:24;0.10;99.90
59301;DHT22;45073;52.740;6.784;2022-12-10T17:09:49;0.10;99.90
59301;DHT22;45073;52.740;6.784;2022-12-10T17:12:15;0.10;99.90
59301;DHT22;45073;52.740;6.784;2022-12-10T17:14:42;0.10;99.90
59301;DHT22;45073;52.740;6.784;2022-12-10T17:17:12;0.10;99.90
59301;DHT22;45073;52.740;6.784;2022-12-10T17:19:39;0.10;99.90
59301;DHT22;45073;52.740;6.784;2022-12-10T17:22:06;0.10;99.90
59301;DHT22;45073;52.740;6.784;2022-12-10T17:24:32;0.10;99.90
59301;DHT22;45073;52.740;6.784;2022-12-10T17:27:18;0.10;99.90
59301;DHT22;45073;52.740;6.784;2022-12-10T17:29:45;0.10;99.90
59301;DHT22;45073;52.740;6.784;2022-12-10T17:32:18;0.10;99.90
59301;DHT22;45073;52.740;6.784;2022-12-10T17:34:44;0.00;99.90
59301;DHT22;45073;52.740;6.784;2022-12-10T17:37:12;0.00;99.90
59301;DHT22;45073;52.740;6.784;2022-12-10T17:39:38;0.00;99.90